Time;durP1;ratioP1;P1;durP2;ratioP2;P2;SDS_P1;SDS_P2;PMS_P1;PMS_P2;Temp;Humidity;BMP_temperature;BMP_pressure;BME280_temperature;BME280_humidity;BME280_pressure;Samples;Min_cycle;Max_cycle;Signal;HPM_P1;HPM_P2
2022/12/03 00:02:12;;;;;;;26.97;10.57;;;;;;;0.23;88.90;101724.92;123135;1102;104383;-78
2022/12/03 00:04:44;;;;;;;27.17;11.77;;;;;;;0.23;89.43;101725.83;123172;1102;104313;-78
2022/12/03 00:07:15;;;;;;;25.33;10.50;;;;;;;0.24;88.78;101726.76;123133;1102;104251;-79
2022/12/03 00:09:46;;;;;;;27.40;10.93;;;;;;;0.25;89.30;101731.14;123041;1102;104333;-79
2022/12/03 00:12:17;;;;;;;25.43;11.53;;;;;;;0.25;89.13;101721.74;123169;1102;104425;-78
2022/12/03 00:14:48;;;;;;;24.60;10.80;;;;;;;0.27;89.51;101727.95;123187;1102;104318;-79
2022/12/03 00:17:19;;;;;;;25.87;11.17;;;;;;;0.27;88.81;101725.37;123146;1102;104736;-78
2022/12/03 00:19:50;;;;;;;28.43;11.87;;;;;;;0.28;89.47;101724.63;123052;1102;104380;-79
2022/12/03 00:22:21;;;;;;;29.60;11.60;;;;;;;0.29;89.47;101728.10;123563;1102;104309;-78
2022/12/03 00:24:53;;;;;;;28.77;11.20;;;;;;;0.30;89.36;101728.25;123509;1102;104408;-78
2022/12/03 00:27:24;;;;;;;23.80;10.77;;;;;;;0.31;89.50;101740.41;123521;1102;104249;-78
2022/12/03 00:29:55;;;;;;;26.77;11.40;;;;;;;0.30;89.15;101735.99;123602;1102;104457;-79
2022/12/03 00:32:26;;;;;;;29.43;12.20;;;;;;;0.29;88.85;101739.33;123526;1102;104293;-79
2022/12/03 00:34:57;;;;;;;28.60;12.40;;;;;;;0.31;89.62;101742.99;123528;1102;104310;-79
2022/12/03 00:37:28;;;;;;;28.77;13.63;;;;;;;0.31;89.14;101735.25;123517;1102;104703;-79
2022/12/03 00:39:59;;;;;;;33.43;14.43;;;;;;;0.32;89.68;101734.45;123580;1100;104379;-79
2022/12/03 00:42:30;;;;;;;31.53;14.23;;;;;;;0.35;89.27;101733.86;123523;1102;104325;-79
2022/12/03 00:45:01;;;;;;;30.57;12.83;;;;;;;0.37;89.71;101739.17;123500;1102;104657;-79
2022/12/03 00:47:33;;;;;;;29.03;12.70;;;;;;;0.36;89.14;101738.27;123603;1102;104274;-78
2022/12/03 00:50:04;;;;;;;27.40;12.73;;;;;;;0.37;89.22;101734.91;123553;1102;104371;-80
2022/12/03 00:52:35;;;;;;;30.67;12.37;;;;;;;0.37;89.59;101731.42;123542;1102;104317;-79
2022/12/03 00:55:07;;;;;;;30.60;12.20;;;;;;;0.37;89.39;101736.59;123595;1102;104626;-79
2022/12/03 00:57:39;;;;;;;30.83;12.47;;;;;;;0.38;88.96;101741.00;123593;1102;104283;-79
2022/12/03 01:00:12;;;;;;;26.43;12.00;;;;;;;0.39;89.57;101735.98;123570;1101;104277;-79
2022/12/03 01:02:43;;;;;;;28.40;13.15;;;;;;;0.40;89.15;101734.30;123717;1102;104281;-79
2022/12/03 01:05:14;;;;;;;26.27;12.17;;;;;;;0.42;89.64;101727.60;123578;1102;104380;-79
2022/12/03 01:07:46;;;;;;;27.10;11.50;;;;;;;0.43;89.56;101739.76;123567;1102;104313;-79
2022/12/03 01:10:17;;;;;;;28.70;11.40;;;;;;;0.44;89.30;101746.76;123568;1102;104354;-79
2022/12/03 01:12:48;;;;;;;30.20;11.27;;;;;;;0.43;89.25;101753.57;123550;1102;104332;-79
2022/12/03 01:15:20;;;;;;;27.83;11.27;;;;;;;0.41;88.96;101747.36;123659;1102;104376;-79
2022/12/03 01:17:53;;;;;;;28.23;12.00;;;;;;;0.38;87.92;101748.75;123687;1102;105826;-80
2022/12/03 01:20:24;;;;;;;25.30;11.33;;;;;;;0.32;88.02;101747.38;123869;1102;104373;-79
2022/12/03 01:22:55;;;;;;;26.70;11.07;;;;;;;0.31;88.38;101755.91;123650;1102;104205;-79
2022/12/03 01:25:27;;;;;;;28.67;12.50;;;;;;;0.28;88.17;101750.44;123713;1102;104235;-80
2022/12/03 01:27:58;;;;;;;30.73;12.30;;;;;;;0.27;88.77;101751.19;123610;1102;104267;-79
2022/12/03 01:32:15;;;;;;;26.00;12.10;;;;;;;0.28;88.96;101749.51;123569;1102;104395;-79
2022/12/03 01:33:20;;;;;;;27.93;11.87;;;;;;;0.30;88.58;101753.17;123596;1102;104274;-79
2022/12/03 01:35:51;;;;;;;32.25;12.10;;;;;;;0.29;88.32;101752.23;123625;1102;104254;-79
2022/12/03 01:38:22;;;;;;;27.47;12.43;;;;;;;0.26;88.78;101759.69;123694;1102;104303;-79
2022/12/03 01:40:54;;;;;;;27.67;11.97;;;;;;;0.27;88.16;101761.52;123689;1102;104712;-79
2022/12/03 01:43:25;;;;;;;25.87;12.43;;;;;;;0.28;88.78;101765.94;123480;1100;104211;-79
2022/12/03 01:45:56;;;;;;;27.60;11.77;;;;;;;0.26;88.48;101759.69;123593;1102;104273;-80
2022/12/03 01:48:28;;;;;;;27.93;12.07;;;;;;;0.27;88.89;101761.52;123618;1102;104296;-79
2022/12/03 01:51:00;;;;;;;27.67;12.50;;;;;;;0.27;88.75;101770.95;123757;1102;104222;-79
2022/12/03 01:53:31;;;;;;;26.83;12.23;;;;;;;0.26;88.35;101757.10;123587;1102;104332;-79
2022/12/03 01:56:02;;;;;;;25.20;11.53;;;;;;;0.28;88.52;101762.42;123649;1102;104300;-79
2022/12/03 01:58:33;;;;;;;28.10;11.50;;;;;;;0.26;88.65;101766.53;123625;1101;104287;-79
2022/12/03 02:01:11;;;;;;;28.20;12.00;;;;;;;0.26;88.70;101774.28;123662;1102;104717;-79
2022/12/03 02:03:43;;;;;;;27.13;11.60;;;;;;;0.27;88.33;101777.01;123558;1102;104277;-79
2022/12/03 02:06:18;;;;;;;26.40;12.00;;;;;;;0.28;88.11;101765.00;123621;1102;104349;-79
2022/12/03 02:08:49;;;;;;;24.40;11.27;;;;;;;0.28;88.50;101773.67;123673;1101;104705;-79
2022/12/03 02:11:25;;;;;;;24.67;10.70;;;;;;;0.28;88.23;101770.16;123725;1102;104364;-79
2022/12/03 02:14:02;;;;;;;31.93;12.10;;;;;;;0.27;88.21;101774.42;123629;1102;104251;-79
2022/12/03 02:16:34;;;;;;;26.13;12.27;;;;;;;0.26;88.58;101775.17;123555;1102;104357;-79
2022/12/03 02:19:10;;;;;;;26.93;11.83;;;;;;;0.26;88.49;101769.11;123534;1102;104400;-79
2022/12/03 02:21:49;;;;;;;27.57;12.50;;;;;;;0.24;88.42;101774.12;123567;1102;104300;-79
2022/12/03 02:24:27;;;;;;;28.57;12.07;;;;;;;0.26;88.34;101763.95;123657;1102;104679;-79
2022/12/03 02:26:58;;;;;;;25.53;11.13;;;;;;;0.25;88.60;101775.03;123607;1102;104308;-79
2022/12/03 02:29:30;;;;;;;26.70;11.90;;;;;;;0.25;88.40;101772.45;123693;1102;104322;-79
2022/12/03 02:32:01;;;;;;;29.53;12.13;;;;;;;0.27;88.30;101774.42;123666;1102;104399;-79
2022/12/03 02:34:41;;;;;;;28.77;11.27;;;;;;;0.27;88.50;101768.36;123650;1102;104331;-79
2022/12/03 02:37:16;;;;;;;26.27;11.70;;;;;;;0.29;88.23;101777.16;123629;1102;104281;-79
2022/12/03 02:39:51;;;;;;;28.47;11.97;;;;;;;0.28;88.26;101776.26;123558;1102;104200;-79
2022/12/03 02:42:35;;;;;;;29.00;12.33;;;;;;;0.30;88.40;101786.73;123556;1102;104216;-79
2022/12/03 02:45:10;;;;;;;26.33;12.50;;;;;;;0.30;88.42;101782.47;123590;1102;104328;-79
2022/12/03 02:47:45;;;;;;;26.27;11.67;;;;;;;0.31;88.30;101784.30;123563;1102;104406;-79
2022/12/03 02:50:17;;;;;;;;;;;;;;;0.30;88.34;101792.80;123798;1102;104367;-79
2022/12/03 02:52:49;;;;;;;29.40;11.47;;;;;;;0.31;88.43;101789.47;123680;1102;104229;-79
2022/12/03 02:55:21;;;;;;;26.27;11.33;;;;;;;0.27;88.04;101791.60;123865;1102;104357;-79
2022/12/03 02:57:53;;;;;;;26.70;12.10;;;;;;;0.23;88.17;101797.21;123678;1102;104198;-79
2022/12/03 03:00:25;;;;;;;27.17;11.10;;;;;;;0.20;88.03;101797.81;123752;1102;104395;-79
2022/12/03 03:02:56;;;;;;;26.27;10.97;;;;;;;0.16;87.82;101798.30;123706;1102;104319;-79
2022/12/03 03:05:27;;;;;;;28.03;12.20;;;;;;;0.13;87.46;101800.58;123625;1102;104182;-79
2022/12/03 03:08:00;;;;;;;27.17;11.10;;;;;;;0.11;87.55;101803.00;123728;1102;104261;-79
2022/12/03 03:10:33;;;;;;;26.03;10.63;;;;;;;0.09;87.78;101806.19;123651;1102;104331;-79
2022/12/03 03:13:07;;;;;;;28.43;11.37;;;;;;;0.08;88.07;101804.34;123779;1101;104232;-79
2022/12/03 03:15:37;;;;;;;;;;;;;;;0.10;87.80;101805.44;123753;1102;104207;-79
2022/12/03 03:18:10;;;;;;;25.03;10.70;;;;;;;0.09;87.27;101807.08;123535;1102;104284;-79
2022/12/03 03:20:41;;;;;;;26.77;11.03;;;;;;;0.08;87.69;101797.54;123733;1102;104312;-79
2022/12/03 03:23:19;;;;;;;27.50;10.97;;;;;;;0.07;88.18;101797.39;123788;1102;104303;-79
2022/12/03 03:25:53;;;;;;;26.53;10.30;;;;;;;0.07;87.70;101799.97;123543;1102;104284;-79
2022/12/03 03:28:28;;;;;;;31.85;11.95;;;;;;;0.06;88.00;101805.88;123654;1102;104287;-79
2022/12/03 03:31:02;;;;;;;23.77;10.77;;;;;;;0.08;88.25;101807.86;123552;1102;104387;-79
2022/12/03 03:33:35;;;;;;;26.73;11.00;;;;;;;0.12;88.38;101803.91;123611;1102;104261;-79
2022/12/03 03:36:07;;;;;;;25.70;10.83;;;;;;;0.13;87.83;101805.73;123725;1102;104525;-79
2022/12/03 03:38:39;;;;;;;26.37;10.53;;;;;;;0.11;88.04;101808.16;123689;1102;104401;-79
2022/12/03 03:41:11;;;;;;;26.00;10.70;;;;;;;0.10;87.57;101813.17;123617;1102;104332;-79
2022/12/03 03:43:44;;;;;;;29.00;11.55;;;;;;;0.08;87.70;101817.25;123653;1102;104280;-79
2022/12/03 03:46:17;;;;;;;28.80;10.73;;;;;;;0.09;87.39;101816.51;123560;1102;104247;-79
2022/12/03 03:48:50;;;;;;;26.95;11.50;;;;;;;0.10;88.27;101814.08;123635;1102;104233;-79
2022/12/03 03:51:21;;;;;;;28.70;10.90;;;;;;;0.11;87.22;101817.56;123578;1102;104280;-79
2022/12/03 03:53:53;;;;;;;26.20;11.20;;;;;;;0.08;87.30;101814.67;123741;1102;104354;-79
2022/12/03 03:56:25;;;;;;;25.53;11.53;;;;;;;0.07;87.40;101811.20;123562;1102;104280;-79
2022/12/03 03:58:56;;;;;;;27.53;11.30;;;;;;;0.08;87.52;101814.67;123662;1102;104354;-80
2022/12/03 04:01:29;;;;;;;27.80;10.95;;;;;;;0.08;87.80;101813.03;123720;1102;105261;-79
2022/12/03 04:04:00;;;;;;;27.00;10.85;;;;;;;0.08;87.87;101807.86;123545;1102;104254;-79
2022/12/03 04:06:31;;;;;;;25.57;10.87;;;;;;;0.09;87.56;101816.51;123690;1102;104280;-79
2022/12/03 04:09:02;;;;;;;28.93;11.47;;;;;;;0.10;87.76;101813.17;123590;1102;104413;-79
2022/12/03 04:14:23;;;;;;;28.80;10.80;;;;;;;0.14;88.30;101813.63;123606;1102;104664;-79
2022/12/03 04:16:54;;;;;;;30.73;11.30;;;;;;;0.13;87.65;101814.38;123545;1101;104398;-79
2022/12/03 04:19:26;;;;;;;27.25;12.05;;;;;;;0.14;88.11;101813.63;123617;1101;104232;-79
2022/12/03 04:24:45;;;;;;;27.27;10.93;;;;;;;0.18;88.32;101812.25;123551;1102;104366;-79
2022/12/03 04:30:06;;;;;;;26.77;11.07;;;;;;;0.15;87.67;101812.84;123581;1102;104287;-79
2022/12/03 04:35:44;;;;;;;26.40;11.00;;;;;;;0.07;88.01;101811.20;123378;1102;104278;-79
2022/12/03 04:38:16;;;;;;;30.37;11.50;;;;;;;0.04;87.78;101804.83;123491;1102;104374;-79
2022/12/03 04:41:03;;;;;;;24.85;10.80;;;;;;;0.04;87.77;101807.41;123575;1102;104370;-79
2022/12/03 04:44:31;;;;;;;28.95;11.90;;;;;;;0.06;87.65;101808.46;123575;1102;104357;-79
2022/12/03 04:46:27;;;;;;;28.40;12.33;;;;;;;0.08;88.16;101812.09;123621;1102;104235;-79
2022/12/03 04:48:58;;;;;;;25.67;10.43;;;;;;;0.10;88.25;101816.66;123574;1102;104437;-79
2022/12/03 04:51:32;;;;;;;27.60;11.10;;;;;;;0.12;88.09;101816.81;123599;1102;104207;-79
2022/12/03 04:54:03;;;;;;;29.55;11.20;;;;;;;0.12;87.65;101816.81;123602;1102;104290;-79
2022/12/03 04:56:34;;;;;;;28.00;11.47;;;;;;;0.13;87.77;101814.38;123583;1102;104293;-79
2022/12/03 04:59:05;;;;;;;26.00;10.70;;;;;;;0.15;87.91;101811.95;123574;1102;104765;-79
2022/12/03 05:01:37;;;;;;;27.60;11.73;;;;;;;0.17;87.84;101820.75;123563;1102;104223;-78
2022/12/03 05:04:08;;;;;;;29.33;11.53;;;;;;;0.17;88.14;101825.91;123556;1102;104709;-79
2022/12/03 05:06:39;;;;;;;30.60;11.70;;;;;;;0.20;88.46;101827.89;123547;1102;104411;-79
2022/12/03 05:09:11;;;;;;;26.30;10.55;;;;;;;0.21;87.98;101833.20;123508;1102;104316;-79
2022/12/03 05:11:43;;;;;;;27.30;11.73;;;;;;;0.19;87.52;101832.16;123613;1102;104277;-79
2022/12/03 05:14:15;;;;;;;31.20;11.93;;;;;;;0.16;88.06;101834.44;123730;1102;104369;-78
2022/12/03 05:16:46;;;;;;;24.80;10.75;;;;;;;0.13;87.75;101834.13;123592;1102;104360;-79
2022/12/03 05:19:17;;;;;;;27.00;11.17;;;;;;;0.11;87.56;101835.62;123587;1102;118098;-79
2022/12/03 05:21:48;;;;;;;25.90;10.53;;;;;;;0.11;87.43;101843.37;123757;1102;104287;-79
2022/12/03 05:24:19;;;;;;;28.70;11.37;;;;;;;0.09;87.57;101845.80;123643;1102;104267;-79
2022/12/03 05:26:50;;;;;;;27.50;10.67;;;;;;;0.09;87.78;101845.80;123694;1102;104251;-79
2022/12/03 05:29:21;;;;;;;27.30;11.27;;;;;;;0.10;87.49;101851.89;123604;1102;104277;-79
2022/12/03 05:31:53;;;;;;;25.30;10.90;;;;;;;0.09;87.84;101856.13;123639;1102;104377;-79
2022/12/03 05:34:24;;;;;;;30.27;10.47;;;;;;;0.11;87.48;101856.28;123622;1102;104441;-79
2022/12/03 05:36:56;;;;;;;28.73;11.03;;;;;;;0.12;88.16;101856.42;123560;1102;104307;-79
2022/12/03 05:39:27;;;;;;;29.57;10.83;;;;;;;0.13;87.55;101857.36;123638;1102;104355;-79
2022/12/03 05:44:47;;;;;;;25.00;10.53;;;;;;;0.14;87.65;101869.48;123586;1102;104740;-79
2022/12/03 05:47:18;;;;;;;26.47;10.73;;;;;;;0.15;87.73;101869.64;123649;1102;104357;-79
2022/12/03 05:49:49;;;;;;;27.93;11.70;;;;;;;0.19;87.95;101876.04;123660;1102;104409;-79
2022/12/03 05:52:20;;;;;;;28.70;11.13;;;;;;;0.22;88.01;101875.41;123541;1102;104258;-79
2022/12/03 05:54:51;;;;;;;29.97;11.27;;;;;;;0.24;88.26;101873.91;123602;1102;104195;-79
2022/12/03 05:57:22;;;;;;;27.90;10.87;;;;;;;0.26;87.90;101886.20;123653;1102;104759;-79
2022/12/03 05:59:53;;;;;;;27.50;10.20;;;;;;;0.28;87.67;101889.86;123707;1102;104873;-79
2022/12/03 06:02:24;;;;;;;25.90;11.17;;;;;;;0.29;87.61;101891.66;123570;1102;104399;-79
2022/12/03 06:04:56;;;;;;;30.27;11.33;;;;;;;0.32;87.57;101883.32;123598;1102;104252;-79
2022/12/03 06:07:27;;;;;;;28.53;11.03;;;;;;;0.32;87.91;101891.06;123544;1102;104309;-79
2022/12/03 06:09:58;;;;;;;28.75;11.40;;;;;;;0.31;87.75;101891.81;123741;1102;104396;-79
2022/12/03 06:12:29;;;;;;;30.23;10.60;;;;;;;0.31;87.73;101895.33;123608;1102;104278;-79
2022/12/03 06:15:01;;;;;;;29.30;10.80;;;;;;;0.31;87.58;101887.59;123562;1102;104345;-79
2022/12/03 06:17:32;;;;;;;31.45;11.35;;;;;;;0.33;88.06;101885.16;123644;1102;104352;-79
2022/12/03 06:20:04;;;;;;;27.97;11.50;;;;;;;0.35;88.08;101889.69;123617;1102;104273;-80
2022/12/03 06:22:35;;;;;;;27.93;11.50;;;;;;;0.35;87.48;101888.79;123771;1102;104357;-80
2022/12/03 06:25:07;;;;;;;31.33;11.83;;;;;;;0.33;87.63;101896.38;123734;1102;104261;-79
2022/12/03 06:27:38;;;;;;;31.40;11.97;;;;;;;0.34;87.28;101897.28;123788;1102;104287;-79
2022/12/03 06:30:12;;;;;;;31.43;12.73;;;;;;;0.39;87.98;101914.17;123800;1102;104229;-79
2022/12/03 06:32:43;;;;;;;30.00;10.93;;;;;;;0.42;87.82;101903.20;123800;1102;104357;-79
2022/12/03 06:35:14;;;;;;;31.25;13.45;;;;;;;0.41;87.59;101912.64;123802;1101;104280;-79
2022/12/03 06:37:45;;;;;;;31.33;12.60;;;;;;;0.40;88.20;101921.13;123751;1102;104235;-79
2022/12/03 06:40:17;;;;;;;33.00;13.13;;;;;;;0.39;88.13;101918.40;123661;1102;104280;-79
2022/12/03 06:42:48;;;;;;;33.40;13.00;;;;;;;0.39;88.40;101923.56;123741;1102;104363;-80
2022/12/03 06:45:19;;;;;;;34.90;13.93;;;;;;;0.40;87.96;101915.07;123654;1102;104201;-79
2022/12/03 06:47:50;;;;;;;32.33;13.03;;;;;;;0.43;88.34;101917.95;123614;1102;104321;-80
2022/12/03 06:50:21;;;;;;;31.03;13.13;;;;;;;0.42;88.17;101918.70;123639;1102;104277;-79
2022/12/03 06:52:53;;;;;;;28.70;11.77;;;;;;;0.42;88.09;101916.12;123732;1102;104675;-79
2022/12/03 06:55:24;;;;;;;32.03;11.67;;;;;;;0.44;88.51;101909.45;123630;1102;104354;-79
2022/12/03 06:57:55;;;;;;;30.33;13.17;;;;;;;0.44;88.18;101907.78;123804;1102;104262;-79
2022/12/03 07:00:26;;;;;;;36.57;13.70;;;;;;;0.48;87.96;101915.08;123604;1102;104376;-79
2022/12/03 07:02:57;;;;;;;30.80;12.83;;;;;;;0.49;88.88;101922.05;123661;1102;104252;-79
2022/12/03 07:05:28;;;;;;;31.83;13.17;;;;;;;0.51;88.97;101914.45;123621;1102;104335;-79
2022/12/03 07:08:00;;;;;;;32.55;13.85;;;;;;;0.54;88.90;101920.81;123692;1102;104249;-79
2022/12/03 07:10:31;;;;;;;35.10;13.60;;;;;;;0.58;88.81;101911.72;123659;1102;104325;-79
2022/12/03 07:13:02;;;;;;;37.50;14.20;;;;;;;0.63;88.17;101912.17;123612;1102;104389;-79
2022/12/03 07:15:33;;;;;;;35.85;14.30;;;;;;;0.68;88.58;101913.52;123495;1102;104382;-79
2022/12/03 07:18:05;;;;;;;36.37;13.47;;;;;;;0.71;88.79;101916.41;123702;1102;104252;-79
2022/12/03 07:20:36;;;;;;;35.27;14.00;;;;;;;0.69;89.13;101916.25;123820;1102;102182;-79
2022/12/03 07:23:07;;;;;;;35.87;14.60;;;;;;;0.69;88.75;101916.25;123787;1102;104254;-79
2022/12/03 07:25:38;;;;;;;33.27;13.90;;;;;;;0.70;88.41;101923.26;123735;1102;104318;-79
2022/12/03 07:28:09;;;;;;;34.83;14.80;;;;;;;0.71;88.73;101925.06;123701;1102;104325;-79
2022/12/03 07:30:40;;;;;;;40.00;15.87;;;;;;;0.74;88.87;101920.98;123648;1101;104248;-79
2022/12/03 07:33:11;;;;;;;37.50;15.13;;;;;;;0.78;89.60;101912.73;123791;1102;104249;-79
2022/12/03 07:35:42;;;;;;;37.77;16.23;;;;;;;0.83;88.91;101915.02;123653;1102;104280;-80
2022/12/03 07:38:13;;;;;;;34.67;15.17;;;;;;;0.87;89.05;101917.16;123593;1102;104227;-79
2022/12/03 07:40:45;;;;;;;40.97;15.27;;;;;;;0.90;88.81;101921.69;123604;1102;104328;-79
2022/12/03 07:43:16;;;;;;;35.90;15.47;;;;;;;0.88;88.97;101924.13;123829;1102;104254;-79
2022/12/03 07:45:47;;;;;;;36.50;15.27;;;;;;;0.88;89.26;101931.87;123692;1102;104354;-79
2022/12/03 07:48:18;;;;;;;42.53;16.30;;;;;;;0.87;88.91;101931.72;123772;1102;104280;-80
2022/12/03 07:50:49;;;;;;;37.43;15.40;;;;;;;0.91;89.19;101936.45;123567;1102;104261;-79
2022/12/03 07:53:21;;;;;;;39.90;17.27;;;;;;;0.93;88.85;101945.25;123643;1102;104290;-79
2022/12/03 07:55:52;;;;;;;38.27;17.03;;;;;;;0.94;89.07;101939.33;123771;1102;104248;-80
2022/12/03 07:58:23;;;;;;;40.67;16.23;;;;;;;0.95;89.16;101941.16;123706;1102;104360;-79
2022/12/03 08:00:54;;;;;;;44.17;16.67;;;;;;;0.92;89.27;101943.45;123710;1102;104281;-80
2022/12/03 08:03:25;;;;;;;43.50;17.17;;;;;;;0.93;89.52;101954.69;123662;1102;104839;-80
2022/12/03 08:05:56;;;;;;;41.40;16.47;;;;;;;0.88;89.16;101954.23;123626;1102;104274;-80
2022/12/03 08:08:28;;;;;;;41.90;18.00;;;;;;;0.87;89.53;101947.23;123745;1102;104272;-81
2022/12/03 08:11:00;;;;;;;41.20;16.80;;;;;;;0.87;89.55;101950.75;123771;1102;104229;-80
2022/12/03 08:13:33;;;;;;;42.73;18.20;;;;;;;0.87;89.57;101954.98;123726;1102;104203;-80
2022/12/03 08:16:15;;;;;;;44.73;17.70;;;;;;;0.88;89.56;101955.13;123711;1102;104262;-80
2022/12/03 08:18:48;;;;;;;38.23;17.03;;;;;;;0.91;89.59;101949.36;123646;1102;104345;-80
2022/12/03 08:21:21;;;;;;;44.67;18.17;;;;;;;0.92;89.64;101955.44;123912;1102;104289;-80
2022/12/03 08:23:52;;;;;;;42.07;17.23;;;;;;;0.93;90.38;101958.17;123807;1102;104166;-80
2022/12/03 08:26:25;;;;;;;46.53;18.73;;;;;;;0.96;89.50;101957.57;123713;1102;104201;-80
2022/12/03 08:28:57;;;;;;;43.77;18.47;;;;;;;0.99;90.08;101958.77;123676;1101;104293;-80
2022/12/03 08:31:31;;;;;;;45.93;18.53;;;;;;;1.01;90.08;101958.92;123565;1102;104233;-80
2022/12/03 08:34:11;;;;;;;;;;;;;;;1.00;90.50;101950.27;123723;1101;104739;-79
2022/12/03 08:36:43;;;;;;;46.07;18.90;;;;;;;1.03;89.81;101947.97;123861;1102;104353;-80
2022/12/03 08:39:29;;;;;;;45.13;17.27;;;;;;;1.10;90.09;101946.89;123722;1102;104281;-80
2022/12/03 08:45:20;;;;;;;41.55;16.95;;;;;;;1.25;90.00;101942.30;123672;1102;104357;-80
2022/12/03 08:47:52;;;;;;;45.83;17.43;;;;;;;1.26;89.89;101946.68;123657;1102;104837;-80
2022/12/03 08:50:29;;;;;;;41.60;16.80;;;;;;;1.29;90.30;101939.22;123672;1102;104261;-79
2022/12/03 08:53:18;;;;;;;40.67;16.37;;;;;;;1.30;90.33;101937.56;123710;1102;104277;-79
2022/12/03 08:55:52;;;;;;;42.37;17.00;;;;;;;1.32;89.90;101933.44;123656;1102;104305;-79
2022/12/03 08:58:26;;;;;;;47.17;17.43;;;;;;;1.34;90.26;101932.83;123751;1102;104178;-80
2022/12/03 09:01:02;;;;;;;42.50;17.98;;;;;;;1.38;90.15;101937.52;123630;1102;104251;-79
2022/12/03 09:03:33;;;;;;;45.30;19.20;;;;;;;1.38;90.51;101942.69;123598;1102;104287;-79
2022/12/03 09:06:04;;;;;;;38.97;17.00;;;;;;;1.36;90.30;101933.88;123626;1102;104511;-79
2022/12/03 09:08:36;;;;;;;42.03;16.93;;;;;;;1.37;90.60;101938.30;123691;1102;104222;-79
2022/12/03 09:11:07;;;;;;;46.23;17.00;;;;;;;1.39;90.34;101941.93;123626;1102;104390;-79
2022/12/03 09:13:38;;;;;;;42.47;18.20;;;;;;;1.40;90.83;101945.42;123642;1102;104252;-79
2022/12/03 09:16:10;;;;;;;42.10;16.70;;;;;;;1.43;91.08;101944.06;123614;1102;104280;-80
2022/12/03 09:18:41;;;;;;;38.17;15.30;;;;;;;1.40;90.74;101942.83;123693;1102;104328;-80
2022/12/03 09:21:12;;;;;;;42.50;18.10;;;;;;;1.38;90.95;101945.27;123649;1102;104332;-79
2022/12/03 09:23:43;;;;;;;45.00;17.80;;;;;;;1.36;91.18;101941.64;123592;1102;104325;-79
2022/12/03 09:26:14;;;;;;;40.07;16.73;;;;;;;1.41;90.93;101936.91;123521;1102;104264;-79
2022/12/03 09:28:47;;;;;;;38.77;14.77;;;;;;;1.43;91.04;101941.47;123704;1102;104277;-80
2022/12/03 09:31:18;;;;;;;41.77;17.43;;;;;;;1.43;91.34;101943.13;123783;1102;104309;-79
2022/12/03 09:33:49;;;;;;;41.73;16.67;;;;;;;1.46;91.10;101937.34;123637;1102;104466;-79
2022/12/03 09:36:20;;;;;;;41.93;16.27;;;;;;;1.51;91.32;101938.68;123637;1102;104367;-79
2022/12/03 09:38:52;;;;;;;40.50;16.07;;;;;;;1.53;91.08;101940.66;123682;1102;104357;-79
2022/12/03 09:41:23;;;;;;;38.13;14.70;;;;;;;1.52;91.50;101948.28;123662;1102;104720;-79
2022/12/03 09:43:56;;;;;;;35.50;14.40;;;;;;;1.51;91.19;101954.20;123556;1102;104274;-79
2022/12/03 09:46:28;;;;;;;46.60;16.07;;;;;;;1.50;91.15;101949.81;123695;1102;104293;-79
2022/12/03 09:49:00;;;;;;;39.37;15.47;;;;;;;1.52;91.35;101950.86;123526;1102;104323;-79
2022/12/03 09:51:34;;;;;;;32.90;14.77;;;;;;;1.56;91.78;101953.89;123629;1102;104293;-79
2022/12/03 09:54:05;;;;;;;;;;;;;;;1.58;91.36;101954.94;123611;1102;105517;-79
2022/12/03 09:56:39;;;;;;;34.70;14.17;;;;;;;1.59;91.52;101953.25;123762;1102;104693;-79
2022/12/03 09:59:15;;;;;;;34.30;15.00;;;;;;;1.55;91.55;101958.92;123609;1101;104437;-79
2022/12/03 10:01:46;;;;;;;35.50;13.80;;;;;;;1.55;91.77;101951.16;123617;1102;104357;-79
2022/12/03 10:04:18;;;;;;;38.43;15.00;;;;;;;1.53;92.02;101958.77;123581;1102;104236;-79
2022/12/03 10:06:50;;;;;;;34.55;14.40;;;;;;;1.50;92.09;101958.48;123853;1102;104275;-80
2022/12/03 10:09:26;;;;;;;43.57;18.67;;;;;;;1.51;92.09;101954.20;123773;1102;104261;-79
2022/12/03 10:11:59;;;;;;;45.27;17.77;;;;;;;1.51;91.91;101957.73;123633;1102;104254;-79
2022/12/03 10:14:30;;;;;;;45.67;18.67;;;;;;;1.52;91.65;101948.28;123714;1102;104357;-79
2022/12/03 10:17:02;;;;;;;39.13;17.83;;;;;;;1.55;91.90;101952.05;123709;1102;104355;-79
2022/12/03 10:19:36;;;;;;;41.17;17.93;;;;;;;1.57;91.97;101950.55;123730;1102;104277;-79
2022/12/03 10:22:07;;;;;;;42.20;17.20;;;;;;;1.59;91.79;101950.66;123756;1102;104235;-79
2022/12/03 10:24:39;;;;;;;37.43;15.50;;;;;;;1.57;92.02;101947.96;123772;1102;104495;-79
2022/12/03 10:27:24;;;;;;;40.17;17.33;;;;;;;1.61;91.60;101951.73;123652;1101;104376;-79
2022/12/03 10:30:00;;;;;;;35.60;15.13;;;;;;;1.67;92.20;101944.56;123641;1102;104278;-78
2022/12/03 10:32:41;;;;;;;34.97;14.20;;;;;;;1.72;92.32;101947.58;123791;1102;104245;-79
2022/12/03 10:35:15;;;;;;;33.53;14.77;;;;;;;1.73;91.65;101950.31;123730;1102;104284;-79
2022/12/03 10:37:59;;;;;;;;;;;;;;;1.78;92.46;101948.16;124108;1102;104213;-79
2022/12/03 10:40:32;;;;;;;27.70;10.80;;;;;;;1.80;92.03;101950.10;123557;1102;104365;-79
2022/12/03 10:43:23;;;;;;;31.47;13.67;;;;;;;1.75;92.21;101945.28;123947;1102;104235;-79
2022/12/03 10:46:12;;;;;;;33.97;13.90;;;;;;;1.77;92.22;101951.50;123734;1102;110568;-79
2022/12/03 10:48:43;;;;;;;32.00;13.83;;;;;;;1.69;92.00;101932.66;123812;1102;104374;-79
2022/12/03 10:51:19;;;;;;;34.63;13.50;;;;;;;1.74;92.64;101946.94;123762;1102;104441;-80
2022/12/03 10:53:53;;;;;;;32.10;13.73;;;;;;;1.73;91.98;101952.91;123660;1102;104685;-79
2022/12/03 10:56:26;;;;;;;35.87;13.87;;;;;;;1.72;91.54;101948.48;123623;1102;104350;-79
2022/12/03 10:58:58;;;;;;;30.15;12.43;;;;;;;1.71;92.54;101950.92;123712;1102;104335;-79
2022/12/03 11:01:31;;;;;;;30.93;12.93;;;;;;;1.72;91.74;101950.17;123690;1101;102016;-79
2022/12/03 11:04:05;;;;;;;29.57;12.13;;;;;;;1.74;91.73;101952.11;123758;1102;104265;-79
2022/12/03 11:06:36;;;;;;;35.27;12.37;;;;;;;1.71;92.19;101944.06;123733;1102;107050;-79
2022/12/03 11:09:18;;;;;;;28.20;11.57;;;;;;;1.71;92.27;101946.65;123618;1102;104763;-79
2022/12/03 11:11:50;;;;;;;24.83;10.37;;;;;;;1.69;91.76;101939.53;123849;1102;104290;-79
2022/12/03 11:14:52;;;;;;;33.23;12.83;;;;;;;1.69;91.81;101937.84;123662;1102;104656;-79
2022/12/03 11:17:45;;;;;;;33.77;12.60;;;;;;;1.75;92.36;101947.88;123649;1102;117904;-79
2022/12/03 11:20:47;;;;;;;26.53;11.40;;;;;;;1.80;92.26;101947.52;123619;1102;104309;-79
2022/12/03 11:23:57;;;;;;;26.00;10.47;;;;;;;1.82;91.90;101946.76;123647;1101;104363;-79
2022/12/03 11:26:59;;;;;;;24.73;10.23;;;;;;;1.75;91.73;101953.95;123426;1102;104453;-79
2022/12/03 11:29:49;;;;;;;24.57;10.20;;;;;;;1.72;91.81;101942.41;123752;1102;104152;-79
2022/12/03 11:33:05;;;;;;;25.80;8.87;;;;;;;1.73;92.09;101942.55;123773;1102;104611;-80
2022/12/03 11:36:15;;;;;;;24.37;10.33;;;;;;;1.78;92.11;101948.16;123594;1102;104280;-80
2022/12/03 11:39:02;;;;;;;25.87;10.73;;;;;;;1.82;92.32;101939.89;123855;1102;104357;-79
2022/12/03 11:41:35;;;;;;;31.03;11.20;;;;;;;1.87;92.09;101943.84;123759;1102;104395;-80
2022/12/03 11:44:30;;;;;;;30.37;10.93;;;;;;;1.92;91.67;101936.52;123758;1102;104235;-78
2022/12/03 11:47:08;;;;;;;28.43;11.07;;;;;;;1.94;92.02;101937.55;123793;1102;104319;-80
2022/12/03 11:49:48;;;;;;;31.07;11.40;;;;;;;1.96;91.95;101948.95;123787;1102;104373;-79